CheckWX is a tool to help pilots better visualize weather data.  It is not intended as a substitute for an official pre-flight weather briefing.

18:23:54 UTC

KPIB TAF
Hattiesburg / Laurel Regional Airport
Hattiesburg-Laurel, Mississippi, USA
KPIB 121720Z 1218/1318 36014G22KT P6SM SCT020 FM130000 35007KT P6SM SKC

Nov-12@
18:00 UTC

Nov-12 @ 18:00 UTC

Nov-13@
00:00 UTC

Nov-13 @ 00:00 UTC

KPIB 121720Z 1218/1318 36014G22KT P6SM SCT020
Wind
  • 360° at 14 KTS
  • {Gusting to 22 KTS
Cloud Levels
  • Scattered at 2,000' AGL

Nov-13@
00:00 UTC

Nov-13 @ 00:00 UTC

Nov-13@
18:00 UTC

Nov-13 @ 18:00 UTC

FM130000 35007KT P6SM SKC

From

From Standard forecast or significant change

Wind
  • 350° at 7 KTS
Cloud Levels
  • Clear skies